Time;durP1;ratioP1;P1;durP2;ratioP2;P2;SDS_P1;SDS_P2;PMS_P1;PMS_P2;Temp;Humidity;BMP_temperature;BMP_pressure;BME280_temperature;BME280_humidity;BME280_pressure;Samples;Min_cycle;Max_cycle;Signal;HPM_P1;HPM_P2
2023/05/17 04:01:19;;;;;;;2.30;1.20;;;10.20;71.70;;;;;;5813684;22;20606;-74
2023/05/17 04:03:45;;;;;;;3.13;1.10;;;10.20;71.80;;;;;;5034076;28;20453;-74
2023/05/17 04:06:14;;;;;;;2.10;1.30;;;10.20;71.90;;;;;;5034096;28;20505;-74
2023/05/17 04:08:41;;;;;;;2.10;0.90;;;10.20;73.00;;;;;;5033685;28;20893;-75
2023/05/17 04:11:11;;;;;;;2.40;1.27;;;10.10;72.80;;;;;;5033891;28;20467;-75
2023/05/17 04:13:39;;;;;;;2.20;1.10;;;10.10;72.40;;;;;;5033971;28;20438;-75
2023/05/17 04:16:06;;;;;;;2.87;1.43;;;10.20;72.30;;;;;;5034166;28;20990;-75
2023/05/17 04:18:36;;;;;;;2.30;1.10;;;10.20;72.50;;;;;;5033595;28;20440;-75
2023/05/17 04:21:03;;;;;;;2.43;1.40;;;10.20;72.80;;;;;;5033664;28;20497;-75
2023/05/17 04:23:30;;;;;;;2.87;1.27;;;10.20;72.70;;;;;;5033753;28;20447;-75
2023/05/17 04:25:57;;;;;;;3.30;1.17;;;10.30;72.70;;;;;;5033410;28;20967;-75
2023/05/17 04:28:24;;;;;;;2.37;1.13;;;10.30;72.50;;;;;;5033744;28;20475;-75
2023/05/17 04:30:51;;;;;;;1.90;1.10;;;10.40;72.40;;;;;;5033268;28;20471;-75
2023/05/17 04:33:18;;;;;;;2.73;1.20;;;10.40;72.10;;;;;;5033627;28;20491;-75
2023/05/17 04:35:46;;;;;;;2.10;1.10;;;10.40;71.70;;;;;;5033576;28;20455;-75
2023/05/17 04:38:13;;;;;;;2.47;1.13;;;10.50;71.60;;;;;;5033506;28;20454;-75
2023/05/17 04:40:41;;;;;;;2.33;1.10;;;10.50;71.40;;;;;;5033364;28;20494;-75
2023/05/17 04:43:07;;;;;;;2.03;1.30;;;10.50;71.40;;;;;;5033484;28;20451;-75
2023/05/17 04:45:34;;;;;;;2.43;1.30;;;10.60;71.30;;;;;;5033097;28;20959;-75
2023/05/17 04:48:01;;;;;;;2.00;1.30;;;10.70;70.60;;;;;;5033079;28;20906;-75
2023/05/17 04:50:28;;;;;;;2.07;1.20;;;10.70;70.30;;;;;;5033383;28;20475;-75
2023/05/17 04:52:56;;;;;;;2.00;1.37;;;10.70;70.50;;;;;;5033315;28;20863;-75
2023/05/17 04:55:22;;;;;;;2.53;1.20;;;10.80;70.40;;;;;;5033422;28;20452;-75
2023/05/17 04:57:49;;;;;;;3.00;1.10;;;10.90;70.20;;;;;;5033008;28;20444;-75
2023/05/17 05:00:17;;;;;;;2.00;1.00;;;11.00;70.00;;;;;;5033405;28;20479;-75
2023/05/17 05:02:45;;;;;;;3.87;1.10;;;11.00;69.80;;;;;;5033135;28;20495;-75
2023/05/17 05:05:12;;;;;;;1.73;0.93;;;11.10;69.60;;;;;;5032997;28;20956;-75
2023/05/17 05:07:38;;;;;;;3.13;1.40;;;11.20;69.10;;;;;;5033255;28;20447;-75
2023/05/17 05:10:08;;;;;;;2.00;0.90;;;11.20;69.40;;;;;;5033225;28;20472;-75
2023/05/17 05:12:34;;;;;;;2.17;1.10;;;11.30;69.50;;;;;;5033130;28;20471;-75
2023/05/17 05:15:01;;;;;;;2.47;1.20;;;11.40;69.50;;;;;;5033139;28;20451;-75
2023/05/17 05:17:30;;;;;;;2.20;1.33;;;11.40;69.10;;;;;;5033372;28;20840;-75
2023/05/17 05:19:57;;;;;;;2.80;1.40;;;11.50;69.10;;;;;;5032998;28;20487;-75
2023/05/17 05:22:23;;;;;;;2.00;1.30;;;11.60;68.70;;;;;;5032946;28;20471;-75
2023/05/17 05:24:50;;;;;;;2.20;1.03;;;11.80;69.00;;;;;;5033045;28;20459;-75
2023/05/17 05:27:18;;;;;;;2.10;1.37;;;11.90;69.60;;;;;;5032979;28;20501;-75
2023/05/17 05:29:45;;;;;;;2.40;1.00;;;11.90;68.80;;;;;;5032603;28;20896;-75
2023/05/17 05:32:14;;;;;;;2.43;1.30;;;12.00;68.60;;;;;;5032565;28;20871;-75
2023/05/17 05:34:40;;;;;;;2.93;1.30;;;11.90;67.50;;;;;;5033198;28;20451;-75
2023/05/17 05:37:07;;;;;;;1.90;0.93;;;11.70;68.50;;;;;;5032871;28;20475;-75
2023/05/17 05:39:34;;;;;;;2.80;1.20;;;11.50;69.10;;;;;;5032813;28;20517;-75
2023/05/17 05:42:00;;;;;;;4.97;1.57;;;11.60;69.70;;;;;;5032767;28;20476;-75
2023/05/17 05:44:28;;;;;;;2.47;1.30;;;11.80;69.30;;;;;;5032539;28;20455;-75
2023/05/17 05:46:55;;;;;;;5.03;1.10;;;11.80;69.00;;;;;;5032474;28;21014;-75
2023/05/17 05:49:22;;;;;;;3.97;1.60;;;11.90;69.00;;;;;;5032521;28;20867;-75
2023/05/17 05:51:48;;;;;;;1.90;1.10;;;11.80;68.30;;;;;;5032323;28;20968;-75
2023/05/17 05:54:15;;;;;;;3.03;1.30;;;11.70;68.20;;;;;;5032418;28;20812;-75
2023/05/17 05:56:42;;;;;;;2.40;1.40;;;11.70;68.80;;;;;;5032809;28;20460;-75
2023/05/17 05:59:09;;;;;;;2.73;1.73;;;11.80;68.90;;;;;;5032407;28;20998;-74
2023/05/17 06:01:37;;;;;;;3.00;1.30;;;12.00;68.60;;;;;;5032275;28;20921;-75
2023/05/17 06:04:04;;;;;;;2.67;1.20;;;12.10;68.40;;;;;;5034894;28;20452;-75
2023/05/17 06:06:31;;;;;;;2.40;1.10;;;12.30;69.20;;;;;;5036246;28;20485;-75
2023/05/17 06:08:57;;;;;;;3.17;1.30;;;12.50;68.20;;;;;;5036259;28;20447;-77
2023/05/17 06:11:26;;;;;;;3.03;1.37;;;12.70;67.60;;;;;;5036156;28;20464;-75
2023/05/17 06:13:53;;;;;;;2.20;1.23;;;12.90;67.60;;;;;;5036074;28;20919;-76
2023/05/17 06:16:19;;;;;;;3.13;1.20;;;13.20;66.50;;;;;;5036132;28;20447;-76
2023/05/17 06:18:47;;;;;;;3.37;1.50;;;13.20;65.90;;;;;;5036082;28;20497;-76
2023/05/17 06:21:15;;;;;;;3.33;1.13;;;13.40;65.20;;;;;;5035942;28;20498;-76
2023/05/17 06:23:41;;;;;;;2.47;1.63;;;13.50;66.20;;;;;;5036116;28;20884;-77
2023/05/17 06:26:09;;;;;;;2.40;1.33;;;13.60;64.80;;;;;;5035980;28;20451;-77
2023/05/17 06:28:36;;;;;;;1.90;1.00;;;13.70;63.80;;;;;;5035973;28;20582;-76
2023/05/17 06:31:03;;;;;;;2.53;1.43;;;13.90;64.90;;;;;;5035561;28;20467;-77
2023/05/17 06:33:29;;;;;;;1.70;0.90;;;14.20;63.30;;;;;;5035893;28;20448;-77
2023/05/17 06:35:57;;;;;;;2.93;1.37;;;14.20;63.00;;;;;;5035906;28;20448;-77
2023/05/17 06:38:25;;;;;;;2.83;1.40;;;13.90;63.70;;;;;;5035669;28;20459;-77
2023/05/17 06:40:52;;;;;;;2.50;1.43;;;13.50;65.00;;;;;;5035311;28;20884;-77
2023/05/17 06:43:19;;;;;;;2.60;1.70;;;13.40;65.30;;;;;;5035738;28;20455;-77
2023/05/17 06:45:46;;;;;;;2.50;1.47;;;13.60;66.10;;;;;;5035529;28;20452;-77
2023/05/17 06:48:12;;;;;;;2.50;1.60;;;13.80;65.20;;;;;;5035928;28;20451;-77
2023/05/17 06:50:39;;;;;;;2.50;1.60;;;13.70;65.00;;;;;;5035755;28;20467;-74
2023/05/17 06:53:07;;;;;;;2.53;1.47;;;13.60;65.90;;;;;;5035619;28;20448;-75
2023/05/17 06:55:34;;;;;;;2.60;1.60;;;13.60;65.50;;;;;;5035433;28;20455;-74
2023/05/17 06:58:01;;;;;;;2.40;1.47;;;13.70;65.20;;;;;;5035100;28;20519;-75
2023/05/17 07:00:28;;;;;;;2.80;1.63;;;13.70;65.00;;;;;;5035014;28;20487;-75
2023/05/17 07:02:55;;;;;;;2.90;1.73;;;13.50;65.30;;;;;;5034966;28;20463;-75
2023/05/17 07:05:23;;;;;;;2.23;1.40;;;13.40;66.30;;;;;;5036076;28;20452;-75
2023/05/17 07:07:50;;;;;;;3.20;1.60;;;13.60;65.70;;;;;;5035180;28;20555;-75
2023/05/17 07:10:18;;;;;;;2.80;1.50;;;13.50;66.50;;;;;;5035240;28;20443;-75
2023/05/17 07:12:44;;;;;;;2.70;1.43;;;13.50;66.20;;;;;;5035090;28;20451;-75
2023/05/17 07:15:11;;;;;;;3.27;1.87;;;13.50;66.30;;;;;;5034067;28;20501;-75
2023/05/17 07:17:38;;;;;;;2.83;1.43;;;13.60;66.60;;;;;;5035158;28;20506;-75
2023/05/17 07:20:06;;;;;;;2.00;1.50;;;13.90;65.10;;;;;;5034950;28;20835;-75
2023/05/17 07:22:33;;;;;;;3.13;1.93;;;13.70;65.60;;;;;;5034868;28;20526;-75
2023/05/17 07:25:00;;;;;;;2.90;2.10;;;13.70;64.60;;;;;;5035328;28;20444;-75
2023/05/17 07:27:28;;;;;;;3.33;1.93;;;13.70;65.70;;;;;;5035112;28;20447;-75
2023/05/17 07:29:54;;;;;;;2.57;1.90;;;13.80;66.30;;;;;;5034797;28;20549;-75
2023/05/17 07:32:21;;;;;;;4.00;1.73;;;14.10;64.10;;;;;;5034668;28;20594;-75
2023/05/17 07:34:48;;;;;;;4.93;1.60;;;14.10;63.90;;;;;;5034702;28;20473;-75
2023/05/17 07:37:14;;;;;;;3.00;1.60;;;14.10;64.60;;;;;;5034445;28;21006;-75
2023/05/17 07:39:41;;;;;;;3.60;1.67;;;14.30;64.70;;;;;;5034346;28;20816;-75
2023/05/17 07:42:08;;;;;;;3.17;1.53;;;14.60;64.20;;;;;;5034718;28;20487;-75
2023/05/17 07:44:36;;;;;;;2.40;1.50;;;14.80;63.60;;;;;;5034665;28;20504;-75
2023/05/17 07:47:02;;;;;;;2.77;1.53;;;14.90;63.80;;;;;;5034781;28;20542;-75
2023/05/17 07:49:30;;;;;;;3.30;2.17;;;14.90;63.00;;;;;;5034468;28;20505;-75
2023/05/17 07:51:57;;;;;;;2.73;1.70;;;15.10;62.20;;;;;;5034270;28;20559;-75
2023/05/17 07:54:25;;;;;;;2.70;1.60;;;15.30;62.10;;;;;;5034171;28;20932;-75
2023/05/17 07:56:54;;;;;;;2.97;1.70;;;15.40;62.40;;;;;;5034409;28;20506;-75
2023/05/17 07:59:20;;;;;;;2.67;1.57;;;15.40;62.10;;;;;;5034337;28;20484;-76
2023/05/17 08:01:49;;;;;;;3.30;1.67;;;15.10;61.00;;;;;;5033731;28;20529;-75
2023/05/17 08:04:16;;;;;;;3.03;2.00;;;14.50;63.80;;;;;;5034449;28;20469;-75
2023/05/17 08:06:44;;;;;;;2.20;1.30;;;14.70;65.90;;;;;;5034484;28;20451;-75
2023/05/17 08:09:11;;;;;;;2.70;1.80;;;14.90;64.50;;;;;;5034158;28;20451;-76
2023/05/17 08:11:44;;;;;;;2.40;1.60;;;15.00;61.90;;;;;;5033956;28;20514;-75
2023/05/17 08:14:11;;;;;;;3.67;1.77;;;14.90;62.80;;;;;;5034181;28;20447;-75
2023/05/17 08:16:38;;;;;;;3.47;1.90;;;15.00;62.30;;;;;;5034258;28;20475;-75
2023/05/17 08:19:06;;;;;;;2.87;1.50;;;14.70;63.30;;;;;;5034060;28;20451;-75
2023/05/17 08:21:33;;;;;;;3.57;1.80;;;14.80;63.20;;;;;;5034022;28;20494;-76
2023/05/17 08:23:59;;;;;;;2.87;1.77;;;14.80;64.40;;;;;;5034085;28;20443;-75
2023/05/17 08:26:26;;;;;;;2.57;1.83;;;15.10;63.80;;;;;;5033612;28;20452;-75
2023/05/17 08:28:52;;;;;;;3.10;1.63;;;15.10;61.80;;;;;;5034215;28;20494;-75
2023/05/17 08:31:19;;;;;;;2.97;1.60;;;15.10;62.20;;;;;;5033907;28;20467;-74
2023/05/17 08:33:46;;;;;;;2.83;1.80;;;15.30;62.30;;;;;;5034077;28;20447;-75
2023/05/17 08:36:14;;;;;;;2.90;1.50;;;15.20;62.10;;;;;;5033959;28;20474;-75
2023/05/17 08:38:41;;;;;;;3.60;1.87;;;15.00;62.50;;;;;;5033905;28;20444;-75
2023/05/17 08:41:09;;;;;;;2.77;1.47;;;15.20;61.60;;;;;;5034000;28;20570;-75
2023/05/17 08:43:36;;;;;;;3.27;1.70;;;15.30;61.80;;;;;;5033825;28;20543;-75
2023/05/17 08:46:03;;;;;;;2.30;1.80;;;15.70;62.00;;;;;;5033835;28;20538;-75
2023/05/17 08:48:30;;;;;;;2.50;1.90;;;15.50;61.90;;;;;;5033657;28;20857;-75
2023/05/17 08:50:58;;;;;;;3.33;2.20;;;15.90;62.10;;;;;;5033411;28;20544;-75
2023/05/17 08:53:27;;;;;;;2.50;1.77;;;16.00;60.40;;;;;;5033601;28;20506;-75
2023/05/17 08:55:57;;;;;;;2.97;1.60;;;16.00;60.20;;;;;;5033524;28;20469;-74
2023/05/17 08:58:27;;;;;;;2.20;1.60;;;16.10;60.20;;;;;;5033674;28;20439;-75
2023/05/17 09:00:56;;;;;;;2.63;2.00;;;16.10;61.20;;;;;;5032948;28;21087;-75
2023/05/17 09:03:23;;;;;;;3.23;1.90;;;16.00;62.70;;;;;;5033512;28;20466;-75
2023/05/17 09:05:52;;;;;;;2.70;1.90;;;16.00;60.80;;;;;;5033521;28;20447;-75
2023/05/17 09:08:20;;;;;;;2.70;1.80;;;16.00;60.20;;;;;;5032997;28;20509;-75
2023/05/17 09:10:48;;;;;;;3.27;1.90;;;16.10;60.30;;;;;;5033345;28;20529;-75
2023/05/17 09:13:15;;;;;;;3.17;2.13;;;16.10;61.40;;;;;;5033665;28;20494;-75
2023/05/17 09:15:43;;;;;;;2.67;1.60;;;15.70;61.50;;;;;;5033220;28;20451;-75
2023/05/17 09:18:11;;;;;;;3.10;2.27;;;15.70;61.40;;;;;;5033333;28;20447;-75
2023/05/17 09:20:39;;;;;;;2.80;1.70;;;15.90;60.70;;;;;;5032741;28;20977;-75
2023/05/17 09:23:08;;;;;;;4.00;2.37;;;15.80;60.30;;;;;;5033567;28;20451;-75
2023/05/17 09:25:35;;;;;;;3.20;2.03;;;15.60;61.60;;;;;;5033369;28;20538;-75
2023/05/17 09:28:06;;;;;;;2.80;2.00;;;15.40;62.10;;;;;;5033041;28;20455;-75
2023/05/17 09:30:36;;;;;;;3.00;1.60;;;15.30;61.60;;;;;;5033042;28;20435;-75
2023/05/17 09:33:06;;;;;;;2.40;1.70;;;15.20;62.70;;;;;;5033286;28;20432;-75
2023/05/17 09:35:33;;;;;;;2.30;1.73;;;15.20;63.20;;;;;;5033010;28;20932;-75
2023/05/17 09:38:07;;;;;;;2.90;1.83;;;15.20;62.80;;;;;;5033711;28;20444;-75
2023/05/17 09:40:37;;;;;;;2.43;1.80;;;15.60;62.70;;;;;;5037067;28;20449;-75
2023/05/17 09:43:05;;;;;;;2.50;2.03;;;15.90;61.30;;;;;;5036954;28;20529;-75
2023/05/17 09:45:32;;;;;;;2.80;1.67;;;16.10;60.70;;;;;;5036844;28;20447;-75
2023/05/17 09:48:11;;;;;;;3.20;1.57;;;16.20;62.00;;;;;;5036881;28;20501;-75
2023/05/17 09:50:43;;;;;;;2.57;1.40;;;16.30;59.20;;;;;;5036263;28;20939;-75
2023/05/17 09:53:25;;;;;;;3.60;1.80;;;16.30;61.10;;;;;;5036704;28;20467;-75
2023/05/17 09:55:53;;;;;;;3.10;1.77;;;16.60;58.50;;;;;;5036692;28;20432;-74
2023/05/17 09:58:21;;;;;;;3.33;1.80;;;16.80;58.20;;;;;;5036480;28;20443;-74
2023/05/17 10:00:52;;;;;;;3.47;1.97;;;16.80;56.90;;;;;;5036304;28;20510;-74
2023/05/17 10:03:19;;;;;;;2.50;1.77;;;16.80;57.40;;;;;;5036339;28;20436;-75
2023/05/17 10:05:48;;;;;;;2.30;1.77;;;16.90;56.60;;;;;;5036010;28;20504;-75
2023/05/17 10:08:17;;;;;;;3.30;2.13;;;16.70;56.10;;;;;;5036320;28;20505;-75
2023/05/17 10:10:44;;;;;;;3.00;1.57;;;16.80;57.60;;;;;;5036194;28;20471;-75
2023/05/17 10:13:12;;;;;;;2.53;1.60;;;16.60;55.20;;;;;;5036289;28;20448;-74
2023/05/17 10:15:42;;;;;;;3.20;1.80;;;16.70;57.10;;;;;;5036484;28;20501;-75
2023/05/17 10:18:09;;;;;;;2.23;1.50;;;16.90;55.80;;;;;;5035705;28;20448;-75
2023/05/17 10:20:37;;;;;;;2.83;1.60;;;17.20;55.40;;;;;;5035729;28;20455;-74
2023/05/17 10:23:05;;;;;;;2.60;1.50;;;17.10;52.80;;;;;;5035994;28;20487;-75
2023/05/17 10:25:33;;;;;;;2.10;1.23;;;17.10;54.60;;;;;;5035729;28;20451;-75
2023/05/17 10:28:00;;;;;;;2.17;1.40;;;17.20;54.60;;;;;;5035982;28;20542;-74
2023/05/17 10:30:29;;;;;;;3.00;1.80;;;17.60;53.60;;;;;;5035908;28;20443;-75
2023/05/17 10:32:58;;;;;;;3.67;1.67;;;17.60;54.50;;;;;;5035865;28;20531;-75
2023/05/17 10:35:27;;;;;;;2.17;1.37;;;17.90;53.50;;;;;;5035536;28;20454;-73
2023/05/17 10:37:54;;;;;;;2.63;1.50;;;17.90;50.30;;;;;;5035824;28;20535;-75
2023/05/17 10:40:22;;;;;;;2.40;1.50;;;17.60;52.60;;;;;;5035416;28;20954;-75
2023/05/17 10:42:52;;;;;;;2.87;1.80;;;17.30;52.00;;;;;;5035757;28;20824;-75
2023/05/17 10:45:21;;;;;;;3.30;2.03;;;17.10;52.60;;;;;;5035730;28;20506;-75
2023/05/17 10:47:50;;;;;;;2.83;1.50;;;16.90;54.10;;;;;;5036122;28;20522;-75
2023/05/17 10:50:22;;;;;;;2.53;1.87;;;16.90;54.40;;;;;;5035239;28;21006;-75
2023/05/17 10:52:50;;;;;;;2.60;1.50;;;16.90;55.30;;;;;;5035544;28;20432;-75
2023/05/17 10:55:20;;;;;;;2.77;1.67;;;16.40;55.20;;;;;;5035558;28;20448;-75
2023/05/17 10:58:18;;;;;;;2.30;1.40;;;16.50;57.60;;;;;;5035573;28;20428;-75
2023/05/17 11:00:47;;;;;;;3.17;1.83;;;16.60;55.90;;;;;;5035248;28;20481;-75
2023/05/17 11:03:18;;;;;;;2.40;1.70;;;16.70;55.80;;;;;;5035559;28;20503;-74
2023/05/17 11:06:12;;;;;;;3.47;2.17;;;16.90;56.20;;;;;;5037899;28;20424;-74
2023/05/17 11:08:46;;;;;;;4.33;1.70;;;17.50;57.40;;;;;;5035792;28;20459;-74
2023/05/17 11:11:16;;;;;;;2.73;1.57;;;17.80;53.70;;;;;;5035383;28;20475;-75
2023/05/17 11:13:52;;;;;;;2.33;1.80;;;17.70;52.90;;;;;;5035516;28;20436;-75
2023/05/17 11:16:22;;;;;;;2.40;1.50;;;17.40;53.90;;;;;;5035728;28;20529;-73
2023/05/17 11:18:50;;;;;;;2.77;1.70;;;17.00;55.50;;;;;;5035778;28;20550;-75
2023/05/17 11:21:19;;;;;;;4.43;2.03;;;17.10;55.90;;;;;;5036051;28;20463;-75
2023/05/17 11:23:47;;;;;;;3.63;1.77;;;16.80;55.00;;;;;;5057660;28;20482;-74
2023/05/17 11:26:21;;;;;;;2.80;1.60;;;16.70;56.50;;;;;;5041159;28;20448;-75
2023/05/17 11:28:49;;;;;;;2.83;1.83;;;16.60;55.70;;;;;;5035634;28;20470;-74
2023/05/17 11:31:15;;;;;;;4.13;2.40;;;16.40;56.60;;;;;;5034625;28;20846;-74
2023/05/17 11:33:44;;;;;;;2.70;2.00;;;16.40;56.50;;;;;;5035062;28;20439;-74
2023/05/17 11:36:21;;;;;;;2.10;1.40;;;16.40;57.60;;;;;;5034765;28;20456;-74
2023/05/17 11:39:10;;;;;;;2.53;1.67;;;16.40;57.30;;;;;;5034983;28;20432;-74
2023/05/17 11:41:40;;;;;;;3.17;1.90;;;16.40;56.10;;;;;;5034126;28;20507;-74
2023/05/17 11:44:07;;;;;;;3.07;1.70;;;16.50;56.10;;;;;;5034545;28;20467;-74
2023/05/17 11:46:34;;;;;;;2.33;1.40;;;16.50;55.80;;;;;;5035185;28;20458;-74
2023/05/17 11:49:02;;;;;;;3.63;1.80;;;16.60;56.10;;;;;;5037187;28;20811;-75
2023/05/17 11:51:31;;;;;;;3.63;1.80;;;16.60;56.20;;;;;;5036123;28;20518;-74
2023/05/17 11:53:58;;;;;;;3.37;1.80;;;16.80;57.40;;;;;;5034329;28;20451;-73
2023/05/17 11:56:26;;;;;;;2.97;1.80;;;16.80;56.30;;;;;;5034370;28;20463;-74
2023/05/17 11:58:54;;;;;;;3.47;1.97;;;16.90;55.50;;;;;;5034288;28;20451;-73
2023/05/17 12:01:20;;;;;;;2.70;1.70;;;16.90;56.10;;;;;;5033640;28;20525;-74
2023/05/17 12:03:55;;;;;;;3.07;2.00;;;16.80;56.00;;;;;;5033771;28;20881;-74
2023/05/17 12:06:23;;;;;;;2.60;1.63;;;16.70;57.10;;;;;;5034284;28;20789;-74
2023/05/17 12:08:51;;;;;;;3.13;2.00;;;16.70;57.20;;;;;;5034110;28;20546;-74
2023/05/17 12:11:19;;;;;;;2.97;1.60;;;16.60;57.00;;;;;;5033927;28;20464;-74
2023/05/17 12:13:47;;;;;;;3.00;1.80;;;16.40;57.00;;;;;;5034277;28;20436;-74
2023/05/17 12:16:15;;;;;;;3.70;1.90;;;16.10;57.00;;;;;;5033960;28;20451;-74
2023/05/17 12:18:44;;;;;;;3.17;1.83;;;16.00;58.30;;;;;;5034016;28;20550;-74
2023/05/17 12:21:14;;;;;;;2.37;1.50;;;16.00;58.40;;;;;;5033856;28;20483;-74
2023/05/17 12:23:42;;;;;;;4.07;2.00;;;15.90;58.10;;;;;;5033775;28;20517;-74
2023/05/17 12:26:11;;;;;;;2.90;1.60;;;15.60;58.40;;;;;;5040820;28;20450;-74
2023/05/17 12:28:40;;;;;;;3.00;1.80;;;15.80;58.60;;;;;;5046198;28;20436;-74
2023/05/17 12:31:10;;;;;;;2.90;1.77;;;15.90;58.30;;;;;;5046242;28;20876;-73
2023/05/17 12:33:39;;;;;;;3.03;1.60;;;16.00;57.80;;;;;;5046042;28;20526;-74
2023/05/17 12:36:08;;;;;;;2.90;1.80;;;16.00;57.30;;;;;;5046675;28;20534;-75
2023/05/17 12:38:37;;;;;;;2.57;1.63;;;15.90;58.20;;;;;;5046447;28;20458;-74
2023/05/17 12:41:05;;;;;;;2.63;1.83;;;15.80;57.80;;;;;;5046626;28;20550;-74
2023/05/17 12:43:35;;;;;;;3.17;1.80;;;16.00;57.50;;;;;;5045283;28;20483;-75
2023/05/17 12:46:10;;;;;;;2.67;1.70;;;16.10;57.10;;;;;;5046700;28;20428;-75
2023/05/17 12:48:37;;;;;;;3.27;1.93;;;16.20;57.80;;;;;;5045676;28;20443;-74
2023/05/17 12:51:08;;;;;;;2.83;1.73;;;16.40;57.90;;;;;;5045397;28;20477;-74
2023/05/17 12:53:36;;;;;;;2.80;1.93;;;16.40;57.00;;;;;;5045576;28;20447;-76
2023/05/17 12:56:03;;;;;;;2.80;1.70;;;16.40;56.70;;;;;;5045250;28;20448;-74
2023/05/17 12:58:30;;;;;;;3.33;1.70;;;16.60;56.50;;;;;;5045843;28;20443;-75
2023/05/17 13:00:59;;;;;;;2.70;1.63;;;16.90;56.90;;;;;;5045785;28;20847;-75
2023/05/17 13:03:27;;;;;;;2.10;1.50;;;16.90;55.60;;;;;;5045754;28;20493;-75
2023/05/17 13:06:05;;;;;;;2.60;1.90;;;16.70;54.70;;;;;;5046064;28;20498;-74
2023/05/17 13:08:32;;;;;;;2.43;1.80;;;16.60;56.10;;;;;;5046058;28;20443;-75
2023/05/17 13:11:07;;;;;;;2.77;1.70;;;16.60;55.80;;;;;;5045274;28;20471;-74
2023/05/17 13:13:34;;;;;;;2.80;1.70;;;16.30;57.20;;;;;;5047427;28;20450;-74
2023/05/17 13:16:02;;;;;;;3.10;1.63;;;16.40;56.20;;;;;;5050441;28;20447;-75
2023/05/17 13:18:29;;;;;;;2.47;1.73;;;16.20;56.50;;;;;;5049727;28;20452;-75
2023/05/17 13:20:56;;;;;;;2.83;1.70;;;16.00;57.10;;;;;;5049358;28;20467;-76
2023/05/17 13:23:23;;;;;;;2.60;1.80;;;16.00;57.70;;;;;;5050018;28;20485;-76
2023/05/17 13:25:50;;;;;;;4.13;2.30;;;16.00;58.00;;;;;;5050495;28;20805;-75
2023/05/17 13:28:16;;;;;;;3.87;2.03;;;16.00;58.40;;;;;;5050085;28;20452;-75
2023/05/17 13:30:48;;;;;;;3.20;1.73;;;15.90;59.10;;;;;;5049890;28;20497;-76
2023/05/17 13:33:16;;;;;;;2.53;1.60;;;15.80;59.70;;;;;;5050172;28;20440;-75
2023/05/17 13:35:43;;;;;;;3.50;1.63;;;15.80;59.40;;;;;;5050044;28;20448;-75
2023/05/17 13:38:10;;;;;;;3.33;1.80;;;15.70;60.10;;;;;;5049923;28;20454;-76
2023/05/17 13:40:37;;;;;;;2.10;1.30;;;15.70;59.90;;;;;;5049606;28;20941;-75
2023/05/17 13:43:03;;;;;;;2.83;1.80;;;15.60;59.20;;;;;;5048864;28;20475;-75
2023/05/17 13:45:31;;;;;;;3.30;1.87;;;15.30;59.00;;;;;;5049655;28;20450;-74
2023/05/17 13:47:58;;;;;;;3.47;1.80;;;15.30;59.10;;;;;;5049627;28;20452;-75
2023/05/17 13:50:26;;;;;;;2.53;1.97;;;15.40;59.40;;;;;;5048551;28;20479;-75
2023/05/17 13:52:53;;;;;;;4.10;2.50;;;15.70;59.80;;;;;;5048727;28;20936;-75
2023/05/17 13:55:20;;;;;;;2.80;2.10;;;15.50;59.10;;;;;;5049453;28;20454;-75
2023/05/17 13:57:50;;;;;;;3.23;1.90;;;15.60;59.70;;;;;;5048798;28;20458;-75
2023/05/17 14:00:17;;;;;;;3.03;1.80;;;15.60;59.60;;;;;;5049391;28;20530;-75
2023/05/17 14:02:44;;;;;;;4.23;1.90;;;15.70;59.70;;;;;;5048002;28;20551;-75
2023/05/17 14:05:11;;;;;;;2.27;1.53;;;15.80;58.90;;;;;;5048577;28;20443;-75
2023/05/17 14:07:40;;;;;;;2.57;1.60;;;16.00;58.30;;;;;;5048011;28;20462;-74
2023/05/17 14:10:08;;;;;;;2.70;1.63;;;16.00;59.20;;;;;;5047391;28;20529;-74
2023/05/17 14:12:35;;;;;;;2.67;1.90;;;16.20;59.10;;;;;;5046858;28;20463;-76
2023/05/17 14:15:02;;;;;;;2.60;1.50;;;16.30;57.70;;;;;;5047133;28;20448;-74
2023/05/17 14:17:29;;;;;;;3.57;1.57;;;16.60;57.60;;;;;;5047255;28;20501;-74
2023/05/17 14:20:01;;;;;;;2.77;1.73;;;16.50;56.30;;;;;;5047836;28;20443;-74
2023/05/17 14:22:28;;;;;;;2.57;1.70;;;16.60;56.70;;;;;;5047801;28;20483;-76
2023/05/17 14:24:56;;;;;;;2.27;1.40;;;16.70;56.80;;;;;;5047527;28;20444;-76
2023/05/17 14:27:22;;;;;;;2.87;1.63;;;16.50;57.60;;;;;;5048094;28;20458;-76
2023/05/17 14:29:49;;;;;;;2.63;1.50;;;16.30;57.10;;;;;;5047888;28;20455;-76
2023/05/17 14:32:16;;;;;;;2.30;1.50;;;16.30;56.90;;;;;;5047614;28;20462;-75
2023/05/17 14:34:43;;;;;;;2.40;1.67;;;15.90;57.30;;;;;;5048137;28;20446;-74
2023/05/17 14:37:10;;;;;;;3.60;2.03;;;15.80;58.30;;;;;;5047752;28;20448;-75
2023/05/17 14:39:36;;;;;;;3.00;1.70;;;15.70;56.80;;;;;;5048555;28;20452;-74
2023/05/17 14:42:05;;;;;;;2.63;1.60;;;15.70;58.10;;;;;;5040422;28;20470;-75
2023/05/17 14:44:33;;;;;;;2.37;1.53;;;15.90;57.50;;;;;;5035211;28;21000;-74
2023/05/17 14:47:00;;;;;;;2.70;2.27;;;16.00;57.30;;;;;;5035621;28;20452;-74
2023/05/17 14:49:26;;;;;;;2.10;1.60;;;15.90;56.70;;;;;;5035309;28;20973;-74
2023/05/17 14:51:53;;;;;;;2.37;1.60;;;15.60;56.90;;;;;;5042984;28;20845;-74
2023/05/17 14:54:20;;;;;;;2.60;1.67;;;15.50;57.10;;;;;;5048318;28;20454;-75
2023/05/17 14:56:47;;;;;;;2.40;1.30;;;15.60;58.20;;;;;;5042808;28;20873;-75
2023/05/17 14:59:15;;;;;;;2.60;1.60;;;15.50;57.50;;;;;;5035377;28;20451;-75
2023/05/17 15:01:42;;;;;;;2.73;1.70;;;15.40;57.40;;;;;;5034749;28;20476;-75
2023/05/17 15:04:09;;;;;;;3.60;1.80;;;15.40;57.60;;;;;;5035186;28;20483;-75
2023/05/17 15:06:36;;;;;;;3.70;1.37;;;15.20;57.20;;;;;;5035185;28;20448;-73
2023/05/17 15:09:02;;;;;;;4.13;1.70;;;15.10;57.10;;;;;;5034929;28;20447;-74
2023/05/17 15:11:30;;;;;;;3.50;1.87;;;15.20;57.50;;;;;;5035083;28;20506;-73
2023/05/17 15:13:57;;;;;;;2.10;1.47;;;15.20;58.10;;;;;;5035195;28;20480;-74
2023/05/17 15:16:25;;;;;;;2.30;1.50;;;15.40;58.20;;;;;;5035102;28;20450;-73
2023/05/17 15:18:52;;;;;;;2.80;1.77;;;15.50;56.90;;;;;;5035021;28;20483;-73
2023/05/17 15:21:18;;;;;;;2.87;1.90;;;15.40;57.10;;;;;;5034832;28;20475;-73
2023/05/17 15:23:46;;;;;;;2.50;1.80;;;15.40;57.00;;;;;;5034776;28;20480;-73
2023/05/17 15:26:13;;;;;;;3.47;1.97;;;15.50;58.50;;;;;;5034955;28;20486;-73
2023/05/17 15:28:40;;;;;;;3.50;2.40;;;15.50;57.90;;;;;;5034510;28;20454;-73
2023/05/17 15:31:09;;;;;;;2.37;1.50;;;15.70;57.50;;;;;;5034414;28;20546;-73
2023/05/17 15:33:38;;;;;;;4.00;1.83;;;15.60;57.90;;;;;;5034756;28;20448;-73
2023/05/17 15:36:05;;;;;;;2.80;1.60;;;15.20;56.80;;;;;;5033501;28;20937;-73
2023/05/17 15:38:32;;;;;;;2.40;1.70;;;15.20;58.00;;;;;;5034678;28;20501;-73
2023/05/17 15:41:02;;;;;;;2.83;1.80;;;15.00;58.50;;;;;;5034139;28;21053;-73
2023/05/17 15:43:29;;;;;;;2.43;1.73;;;15.00;58.60;;;;;;5034230;28;20980;-73
2023/05/17 15:45:56;;;;;;;2.53;1.70;;;15.00;59.70;;;;;;5034480;28;20451;-74
2023/05/17 15:48:24;;;;;;;2.83;1.50;;;14.80;60.30;;;;;;5034421;28;20448;-73
2023/05/17 15:50:52;;;;;;;3.20;1.63;;;14.70;60.90;;;;;;5034332;28;20474;-73
2023/05/17 15:53:19;;;;;;;2.47;1.50;;;14.70;61.80;;;;;;5033894;28;20861;-73
2023/05/17 15:55:49;;;;;;;2.70;1.90;;;14.70;62.10;;;;;;5034228;28;20458;-73
2023/05/17 15:58:16;;;;;;;2.93;1.50;;;14.70;61.10;;;;;;5035394;28;20450;-73
2023/05/17 16:00:43;;;;;;;2.40;1.80;;;14.50;61.60;;;;;;5033971;28;20521;-73
2023/05/17 16:03:11;;;;;;;2.63;1.90;;;14.60;60.30;;;;;;5033906;28;20460;-73
2023/05/17 16:05:38;;;;;;;2.40;1.60;;;14.70;59.70;;;;;;5034062;28;20546;-73
2023/05/17 16:08:07;;;;;;;2.63;1.43;;;14.90;59.80;;;;;;5033998;28;20474;-73
2023/05/17 16:10:35;;;;;;;3.50;1.90;;;14.80;59.40;;;;;;5033948;28;20450;-73
2023/05/17 16:13:01;;;;;;;3.43;2.30;;;14.60;59.10;;;;;;5034048;28;20453;-73
2023/05/17 16:15:28;;;;;;;2.90;1.57;;;14.50;58.30;;;;;;5041644;23;20518;-73
2023/05/17 16:17:55;;;;;;;2.20;1.40;;;14.60;59.40;;;;;;5033852;28;20451;-73
2023/05/17 16:20:21;;;;;;;2.60;1.50;;;14.90;58.90;;;;;;5033853;28;20446;-74
2023/05/17 16:22:49;;;;;;;3.57;1.90;;;15.00;58.80;;;;;;5033774;28;20505;-74
2023/05/17 16:25:18;;;;;;;3.17;1.90;;;14.70;58.10;;;;;;5033618;28;20545;-74
2023/05/17 16:27:45;;;;;;;2.50;1.60;;;14.90;58.50;;;;;;5033704;28;20451;-74
2023/05/17 16:30:13;;;;;;;2.60;1.67;;;15.00;57.30;;;;;;5033604;28;20451;-74
2023/05/17 16:32:40;;;;;;;2.97;1.60;;;14.70;58.50;;;;;;5033649;28;20497;-74
2023/05/17 16:35:07;;;;;;;3.40;1.63;;;14.70;58.10;;;;;;5035642;28;20539;-75
2023/05/17 16:37:34;;;;;;;3.70;1.90;;;14.70;58.50;;;;;;5046006;28;20450;-74
2023/05/17 16:40:01;;;;;;;2.90;1.50;;;14.70;58.50;;;;;;5045227;28;20447;-74
2023/05/17 16:42:29;;;;;;;2.73;1.87;;;14.60;58.50;;;;;;5045724;28;20444;-76
2023/05/17 16:44:56;;;;;;;2.60;1.63;;;14.70;59.00;;;;;;5044107;28;20491;-76
2023/05/17 16:47:25;;;;;;;2.10;1.50;;;14.90;58.50;;;;;;5045103;28;20452;-74
2023/05/17 16:49:51;;;;;;;2.90;1.57;;;15.10;58.00;;;;;;5046480;28;20475;-74
2023/05/17 16:52:18;;;;;;;2.80;1.80;;;14.90;58.10;;;;;;5044830;28;20451;-74